Sumpter, Oregon
Current Conditions -  °F | °C
As of 11:53 AM on Saturday 25 Oct 2014 (Local Time) from KBKE Reporting Station
Clear Clear  
Wind Chill: 62°   Ceiling: Unl
Heat Index: 62°   Visibility: 10mi
Dew Point: 42°   Wind: 16mph
Humidity: 48%   Direction: 120°ESE
Pressure: 29.75"   Gusts: 22mph
Location:  44.75°N, 118.2°W
Report Text: KBKE 251853Z AUTO 12014G19KT 10SM CLR 17/06 A2975 RMK AO2 SLP071 T01670056 $
Loading
Personal Weather Stations






























Interactive Weather Map
Tropical Storm Tracking
New forecast layout! Learn more

10-Day Weather Forecast

Advertisements
Track Severe Weather on mobile